Time;durP1;ratioP1;P1;durP2;ratioP2;P2;SDS_P1;SDS_P2;PMS_P1;PMS_P2;Temp;Humidity;BMP_temperature;BMP_pressure;BME280_temperature;BME280_humidity;BME280_pressure;Samples;Min_cycle;Max_cycle;Signal;HPM_P1;HPM_P2
2023/01/25 00:02:03;;;;;;;20.05;17.85;;;3.40;99.90;;;;;;4946264;28;20209;-68
2023/01/25 00:04:30;;;;;;;19.38;15.95;;;3.40;99.90;;;;;;4945883;28;20217;-68
2023/01/25 00:06:57;;;;;;;23.05;18.50;;;3.40;99.90;;;;;;4951502;28;20195;-68
2023/01/25 00:09:25;;;;;;;21.17;17.35;;;3.30;99.90;;;;;;4951574;28;20238;-68
2023/01/25 00:11:55;;;;;;;21.20;17.25;;;3.20;99.90;;;;;;4946453;28;21086;-68
2023/01/25 00:14:23;;;;;;;21.40;17.38;;;3.20;99.90;;;;;;4950742;28;20570;-68
2023/01/25 00:16:50;;;;;;;18.65;15.90;;;3.30;99.90;;;;;;4952128;28;20254;-68
2023/01/25 00:19:17;;;;;;;20.60;16.92;;;3.30;99.90;;;;;;4948791;28;20246;-68
2023/01/25 00:21:44;;;;;;;20.77;17.10;;;3.40;99.90;;;;;;4941756;28;22277;-68
2023/01/25 00:24:13;;;;;;;20.52;17.00;;;3.40;99.90;;;;;;4948545;28;20577;-68
2023/01/25 00:26:42;;;;;;;19.95;16.10;;;3.40;99.90;;;;;;4949928;28;20254;-68
2023/01/25 00:29:11;;;;;;;18.10;15.60;;;3.50;99.90;;;;;;4949476;28;20200;-68
2023/01/25 00:31:50;;;;;;;22.35;16.85;;;3.50;99.90;;;;;;4949246;28;20267;-68
2023/01/25 00:34:43;;;;;;;18.63;16.67;;;3.50;99.90;;;;;;4947531;28;20304;-67
2023/01/25 00:37:19;;;;;;;20.90;16.90;;;3.50;99.90;;;;;;4942729;28;20211;-68
2023/01/25 00:39:46;;;;;;;20.33;17.02;;;3.60;99.90;;;;;;4949657;28;20279;-68
2023/01/25 00:42:14;;;;;;;19.27;16.40;;;3.50;99.90;;;;;;4947329;28;20207;-68
2023/01/25 00:44:41;;;;;;;20.70;16.70;;;3.50;99.90;;;;;;4946848;28;20206;-68
2023/01/25 00:47:11;;;;;;;18.45;15.90;;;3.60;99.90;;;;;;4948746;28;20195;-68
2023/01/25 00:49:39;;;;;;;19.92;16.80;;;3.60;99.90;;;;;;4950145;28;20251;-68
2023/01/25 00:52:07;;;;;;;18.50;16.23;;;3.60;99.90;;;;;;4944063;28;20204;-68
2023/01/25 00:54:34;;;;;;;19.98;17.45;;;3.60;99.90;;;;;;4947310;28;20219;-68
2023/01/25 00:57:01;;;;;;;19.45;16.20;;;3.60;99.90;;;;;;4950595;28;20207;-68
2023/01/25 00:59:28;;;;;;;19.27;15.93;;;3.60;99.90;;;;;;4952264;28;20204;-68
2023/01/25 01:01:55;;;;;;;18.15;15.82;;;3.70;99.90;;;;;;4946011;28;20593;-68
2023/01/25 01:04:24;;;;;;;18.25;15.55;;;3.70;99.90;;;;;;4950889;28;20208;-68
2023/01/25 01:06:53;;;;;;;19.65;16.30;;;3.70;99.90;;;;;;4950727;28;20196;-68
2023/01/25 01:09:21;;;;;;;18.48;15.73;;;3.70;99.90;;;;;;4947341;28;20649;-68
2023/01/25 01:11:48;;;;;;;18.45;15.65;;;3.70;99.90;;;;;;4944057;28;20193;-68
2023/01/25 01:14:15;;;;;;;18.98;16.40;;;3.70;99.90;;;;;;4947097;28;20339;-68
2023/01/25 01:16:42;;;;;;;18.88;15.48;;;3.70;99.90;;;;;;4949762;28;20204;-67
2023/01/25 01:19:09;;;;;;;17.67;15.77;;;3.70;99.90;;;;;;4945431;28;20204;-68
2023/01/25 01:21:38;;;;;;;19.13;16.20;;;3.70;99.90;;;;;;4941418;28;20228;-68
2023/01/25 01:24:06;;;;;;;18.77;16.48;;;3.70;99.90;;;;;;4946804;28;20675;-68
2023/01/25 01:26:33;;;;;;;19.83;15.75;;;3.80;99.90;;;;;;4943036;28;20192;-68
2023/01/25 01:29:00;;;;;;;21.23;16.98;;;3.70;99.90;;;;;;4950716;28;20219;-68
2023/01/25 01:31:27;;;;;;;17.33;15.20;;;3.70;99.90;;;;;;4942782;28;20303;-68
2023/01/25 01:33:55;;;;;;;20.80;16.05;;;3.70;99.90;;;;;;4946455;28;20208;-68
2023/01/25 01:36:25;;;;;;;19.33;16.10;;;3.70;99.90;;;;;;4942377;28;20306;-68
2023/01/25 01:38:53;;;;;;;21.48;17.17;;;3.70;99.90;;;;;;4947399;28;20200;-68
2023/01/25 01:41:20;;;;;;;17.58;15.30;;;3.70;99.90;;;;;;4948002;28;20238;-68
2023/01/25 01:43:48;;;;;;;18.38;16.25;;;3.80;99.90;;;;;;4949401;28;20203;-68
2023/01/25 01:46:19;;;;;;;19.58;16.02;;;3.80;99.90;;;;;;4947120;28;20261;-68
2023/01/25 01:48:50;;;;;;;19.85;16.10;;;3.80;99.90;;;;;;4949289;28;20669;-68
2023/01/25 01:51:22;;;;;;;25.23;18.60;;;3.80;99.90;;;;;;4950199;28;20228;-69
2023/01/25 01:53:55;;;;;;;20.27;16.83;;;3.80;99.90;;;;;;4945031;28;20659;-69
2023/01/25 01:56:29;;;;;;;19.55;15.82;;;3.80;99.90;;;;;;4950576;28;20319;-69
2023/01/25 01:58:58;;;;;;;20.85;16.95;;;3.80;99.90;;;;;;4951566;28;20201;-68
2023/01/25 02:01:25;;;;;;;21.42;17.95;;;3.70;99.90;;;;;;4949390;28;20242;-69
2023/01/25 02:03:52;;;;;;;21.73;16.35;;;3.70;99.90;;;;;;4943719;28;20196;-68
2023/01/25 02:06:26;;;;;;;21.10;16.23;;;3.70;99.90;;;;;;4944184;28;20211;-69
2023/01/25 02:08:55;;;;;;;20.95;17.55;;;3.70;99.90;;;;;;4950114;28;20208;-69
2023/01/25 02:11:22;;;;;;;24.38;17.60;;;3.60;99.90;;;;;;4944049;28;20315;-69
2023/01/25 02:13:49;;;;;;;21.08;16.63;;;3.60;99.90;;;;;;4948285;28;20201;-68
2023/01/25 02:16:22;;;;;;;23.30;17.90;;;3.60;99.90;;;;;;4949794;28;20207;-69
2023/01/25 02:18:49;;;;;;;20.25;16.08;;;3.60;99.90;;;;;;4950106;28;20286;-68
2023/01/25 02:21:16;;;;;;;25.67;18.58;;;3.60;99.90;;;;;;4943468;28;21151;-68
2023/01/25 02:23:51;;;;;;;24.55;18.27;;;3.60;99.90;;;;;;4947789;28;20657;-69
2023/01/25 02:26:20;;;;;;;20.95;17.38;;;3.60;99.90;;;;;;4940161;28;20212;-68
2023/01/25 02:28:50;;;;;;;22.90;18.50;;;3.60;99.90;;;;;;4948422;28;20206;-68
2023/01/25 02:31:17;;;;;;;26.95;18.05;;;3.50;99.90;;;;;;4941209;28;20219;-68
2023/01/25 02:33:45;;;;;;;23.50;18.80;;;3.50;99.90;;;;;;4948980;28;20200;-68
2023/01/25 02:36:24;;;;;;;26.58;19.42;;;3.50;99.90;;;;;;4958786;28;20204;-68
2023/01/25 02:38:56;;;;;;;24.05;17.63;;;3.50;99.90;;;;;;4946790;28;20196;-68
2023/01/25 02:41:30;;;;;;;21.25;15.60;;;3.50;99.90;;;;;;4947013;28;20672;-68
2023/01/25 02:43:57;;;;;;;21.98;18.50;;;3.50;99.90;;;;;;4954043;28;20196;-68
2023/01/25 02:46:27;;;;;;;23.77;18.70;;;3.50;99.90;;;;;;4955296;28;20203;-68
2023/01/25 02:48:55;;;;;;;23.27;18.75;;;3.40;99.90;;;;;;4949330;28;20204;-68
2023/01/25 02:51:23;;;;;;;23.83;18.20;;;3.40;99.90;;;;;;4950117;28;20688;-68
2023/01/25 02:53:50;;;;;;;23.88;18.50;;;3.40;99.90;;;;;;4945664;28;20552;-68
2023/01/25 02:56:18;;;;;;;23.35;19.05;;;3.40;99.90;;;;;;4951250;28;20592;-68
2023/01/25 02:58:46;;;;;;;24.05;18.80;;;3.40;99.90;;;;;;4946183;28;20631;-68
2023/01/25 03:01:14;;;;;;;21.85;17.42;;;3.40;99.90;;;;;;4951004;28;20239;-68
2023/01/25 03:03:42;;;;;;;23.75;17.85;;;3.40;99.90;;;;;;4952918;28;20208;-68
2023/01/25 03:06:09;;;;;;;19.92;17.60;;;3.50;99.90;;;;;;4949709;28;20207;-68
2023/01/25 03:08:36;;;;;;;20.92;17.02;;;3.50;99.90;;;;;;4946965;28;20201;-68
2023/01/25 03:11:05;;;;;;;23.17;19.00;;;3.50;99.90;;;;;;4952184;28;20320;-68
2023/01/25 03:13:33;;;;;;;22.65;18.45;;;3.50;99.90;;;;;;4951799;28;20215;-68
2023/01/25 03:16:03;;;;;;;23.17;18.00;;;3.50;99.90;;;;;;4950756;28;20569;-68
2023/01/25 03:18:30;;;;;;;20.55;16.50;;;3.50;99.90;;;;;;4948799;28;20612;-68
2023/01/25 03:21:04;;;;;;;22.23;17.42;;;3.50;99.90;;;;;;4950839;28;20266;-68
2023/01/25 03:23:31;;;;;;;22.45;17.98;;;3.50;99.90;;;;;;4947948;28;20231;-68
2023/01/25 03:26:11;;;;;;;19.85;16.55;;;3.40;99.90;;;;;;4954525;28;20674;-68
2023/01/25 03:28:39;;;;;;;19.13;16.63;;;3.50;99.90;;;;;;4947906;28;20232;-68
2023/01/25 03:31:09;;;;;;;23.00;16.90;;;3.50;99.90;;;;;;4950267;28;21026;-68
2023/01/25 03:33:37;;;;;;;19.40;15.70;;;3.50;99.90;;;;;;4949943;28;20243;-68
2023/01/25 03:36:05;;;;;;;21.77;15.93;;;3.50;99.90;;;;;;4949642;28;20296;-68
2023/01/25 03:38:32;;;;;;;19.92;17.02;;;3.50;99.90;;;;;;4946750;28;20653;-68
2023/01/25 03:40:59;;;;;;;21.02;16.73;;;3.50;99.90;;;;;;4948203;28;20224;-68
2023/01/25 03:43:27;;;;;;;18.88;16.02;;;3.50;99.90;;;;;;4950424;28;20209;-68
2023/01/25 03:45:55;;;;;;;20.58;16.65;;;3.60;99.90;;;;;;4940177;28;20208;-68
2023/01/25 03:48:25;;;;;;;18.52;15.68;;;3.60;99.90;;;;;;4946138;28;20224;-68
2023/01/25 03:50:53;;;;;;;18.23;15.43;;;3.60;99.90;;;;;;4953012;28;20248;-68
2023/01/25 03:53:28;;;;;;;18.98;16.00;;;3.60;99.90;;;;;;4950097;28;20299;-68
2023/01/25 03:55:55;;;;;;;17.77;14.13;;;3.60;99.90;;;;;;4952169;28;20660;-68
2023/01/25 03:58:23;;;;;;;20.35;14.75;;;3.60;99.90;;;;;;4950620;28;20207;-68
2023/01/25 04:00:50;;;;;;;17.67;14.63;;;3.60;99.90;;;;;;4951963;28;20666;-68
2023/01/25 04:03:18;;;;;;;17.77;14.13;;;3.50;99.90;;;;;;4949696;28;20287;-68
2023/01/25 04:05:47;;;;;;;18.35;14.35;;;3.50;99.90;;;;;;4952124;28;20246;-68
2023/01/25 04:08:14;;;;;;;18.73;15.25;;;3.50;99.90;;;;;;4944244;28;20287;-69
2023/01/25 04:10:41;;;;;;;17.40;13.52;;;3.50;99.90;;;;;;4946675;28;20227;-69
2023/01/25 04:13:08;;;;;;;17.27;14.55;;;3.50;99.90;;;;;;4949417;28;20203;-68
2023/01/25 04:15:36;;;;;;;16.00;13.35;;;3.50;99.90;;;;;;4951384;28;20251;-68
2023/01/25 04:18:03;;;;;;;17.27;14.77;;;3.60;99.90;;;;;;4950494;28;20208;-68
2023/01/25 04:20:30;;;;;;;15.95;13.75;;;3.50;99.90;;;;;;4944839;28;20444;-69
2023/01/25 04:22:58;;;;;;;16.50;13.40;;;3.50;99.90;;;;;;4949956;28;20227;-68
2023/01/25 04:25:25;;;;;;;16.70;14.15;;;3.50;99.90;;;;;;4951277;28;20203;-68
2023/01/25 04:27:52;;;;;;;15.55;13.82;;;3.50;99.90;;;;;;4947445;28;20243;-68
2023/01/25 04:30:19;;;;;;;16.48;14.73;;;3.50;99.90;;;;;;4953100;28;20255;-68
2023/01/25 04:32:47;;;;;;;17.27;14.57;;;3.40;99.90;;;;;;4949077;28;20223;-68
2023/01/25 04:35:14;;;;;;;16.60;14.40;;;3.40;99.90;;;;;;4950898;28;20253;-68
2023/01/25 04:37:41;;;;;;;15.52;13.60;;;3.40;99.90;;;;;;4947871;28;20192;-68
2023/01/25 04:40:10;;;;;;;17.52;14.50;;;3.30;99.90;;;;;;4948135;28;20587;-68
2023/01/25 04:42:37;;;;;;;16.45;14.10;;;3.30;99.90;;;;;;4943165;28;20238;-68
2023/01/25 04:45:05;;;;;;;17.83;14.68;;;3.30;99.90;;;;;;4951189;28;20226;-68
2023/01/25 04:47:32;;;;;;;17.13;14.02;;;3.20;99.90;;;;;;4945993;28;20216;-68
2023/01/25 04:49:59;;;;;;;15.80;14.00;;;3.30;99.90;;;;;;4945493;28;20585;-68
2023/01/25 04:52:26;;;;;;;18.17;14.48;;;3.30;99.90;;;;;;4943498;28;20196;-68
2023/01/25 04:54:53;;;;;;;13.93;12.43;;;3.30;99.90;;;;;;4951930;28;20207;-68
2023/01/25 04:57:22;;;;;;;15.02;13.43;;;3.40;99.90;;;;;;4945977;28;20669;-68
2023/01/25 04:59:49;;;;;;;14.13;12.05;;;3.40;99.90;;;;;;4944159;28;20326;-68
2023/01/25 05:02:15;;;;;;;13.80;12.02;;;3.40;99.90;;;;;;4945514;28;20229;-68
2023/01/25 05:04:43;;;;;;;13.95;12.00;;;3.40;99.90;;;;;;4950651;28;20730;-68
2023/01/25 05:07:09;;;;;;;16.20;12.85;;;3.40;99.90;;;;;;4949930;28;20287;-68
2023/01/25 05:09:36;;;;;;;15.90;13.35;;;3.50;99.90;;;;;;4945211;28;20719;-68
2023/01/25 05:12:10;;;;;;;15.13;13.52;;;3.40;99.90;;;;;;4945897;28;20229;-68
2023/01/25 05:14:38;;;;;;;14.98;13.38;;;3.40;99.90;;;;;;4941480;28;20207;-69
2023/01/25 05:17:08;;;;;;;14.98;12.50;;;3.30;99.90;;;;;;4943954;28;20802;-69
2023/01/25 05:19:35;;;;;;;15.00;10.98;;;3.30;99.90;;;;;;4940604;28;20227;-69
2023/01/25 05:22:06;;;;;;;13.98;11.68;;;3.30;99.90;;;;;;4950496;28;20274;-68
2023/01/25 05:24:34;;;;;;;12.63;11.25;;;3.30;99.90;;;;;;4946685;28;20672;-68
2023/01/25 05:27:04;;;;;;;13.02;11.40;;;3.30;99.90;;;;;;4947418;28;20208;-68
2023/01/25 05:29:34;;;;;;;12.10;10.63;;;3.30;99.90;;;;;;4950825;28;20572;-69
2023/01/25 05:32:06;;;;;;;13.98;11.50;;;3.30;99.90;;;;;;4949395;28;20219;-68
2023/01/25 05:34:33;;;;;;;13.75;12.30;;;3.30;99.90;;;;;;4943813;28;20204;-69
2023/01/25 05:37:01;;;;;;;15.70;13.98;;;3.30;99.90;;;;;;4948112;28;20291;-69
2023/01/25 05:39:28;;;;;;;14.35;12.85;;;3.30;99.90;;;;;;4941804;28;20265;-69
2023/01/25 05:41:55;;;;;;;12.48;11.27;;;3.30;99.90;;;;;;4936780;28;20692;-68
2023/01/25 05:44:23;;;;;;;11.30;10.20;;;3.40;99.90;;;;;;4940195;28;20227;-67
2023/01/25 05:46:50;;;;;;;11.93;10.73;;;3.40;99.90;;;;;;4945140;28;20196;-68
2023/01/25 05:49:19;;;;;;;12.93;11.57;;;3.40;99.90;;;;;;4947111;28;20216;-67
2023/01/25 05:51:46;;;;;;;12.43;10.95;;;3.40;99.90;;;;;;4938209;28;20255;-69
2023/01/25 05:54:16;;;;;;;11.18;10.07;;;3.40;99.90;;;;;;4930691;28;20255;-70
2023/01/25 05:56:43;;;;;;;17.08;15.55;;;3.40;99.90;;;;;;4945311;28;20289;-68
2023/01/25 05:59:12;;;;;;;15.07;13.32;;;3.40;99.90;;;;;;4946893;28;20307;-68
2023/01/25 06:01:39;;;;;;;11.77;10.52;;;3.40;99.90;;;;;;4950773;28;20204;-69
2023/01/25 06:04:07;;;;;;;10.65;9.55;;;3.40;99.90;;;;;;4951259;28;20715;-68
2023/01/25 06:06:35;;;;;;;12.80;11.50;;;3.40;99.90;;;;;;4936285;28;20240;-73
2023/01/25 06:09:02;;;;;;;12.35;10.50;;;3.30;99.90;;;;;;4943780;28;20202;-68
2023/01/25 06:11:29;;;;;;;11.82;10.63;;;3.30;99.90;;;;;;4945160;28;20232;-68
2023/01/25 06:13:56;;;;;;;12.15;10.95;;;3.30;99.90;;;;;;4948566;28;20202;-68
2023/01/25 06:16:23;;;;;;;13.18;10.68;;;3.30;99.90;;;;;;4949290;28;20774;-68
2023/01/25 06:18:50;;;;;;;11.93;10.68;;;3.30;99.90;;;;;;4950283;28;20204;-68
2023/01/25 06:21:18;;;;;;;14.00;10.90;;;3.20;99.90;;;;;;4946633;28;21298;-69
2023/01/25 06:23:46;;;;;;;11.88;10.60;;;3.20;99.90;;;;;;4954539;28;20754;-68
2023/01/25 06:26:14;;;;;;;11.25;10.10;;;3.20;99.90;;;;;;4951486;28;20196;-68
2023/01/25 06:28:42;;;;;;;11.15;10.02;;;3.20;99.90;;;;;;4945616;28;20195;-68
2023/01/25 06:31:11;;;;;;;12.75;10.32;;;3.20;99.90;;;;;;4950998;28;20456;-68
2023/01/25 06:33:38;;;;;;;12.18;10.73;;;3.30;99.90;;;;;;4950961;28;20205;-68
2023/01/25 06:36:07;;;;;;;13.85;11.75;;;3.30;99.90;;;;;;4950644;28;20710;-68
2023/01/25 06:38:34;;;;;;;11.95;10.75;;;3.40;99.90;;;;;;4953163;28;20203;-68
2023/01/25 06:41:04;;;;;;;10.95;9.40;;;3.30;99.90;;;;;;4947819;28;20762;-68
2023/01/25 06:43:32;;;;;;;10.88;9.73;;;3.30;99.90;;;;;;4950225;28;20224;-69
2023/01/25 06:46:00;;;;;;;10.80;9.75;;;3.30;99.90;;;;;;4948540;28;20232;-69
2023/01/25 06:48:28;;;;;;;12.35;11.15;;;3.30;99.90;;;;;;4953400;28;20203;-71
2023/01/25 06:50:56;;;;;;;10.50;9.15;;;3.40;99.90;;;;;;4952359;28;20233;-69
2023/01/25 06:53:25;;;;;;;10.57;9.50;;;3.40;99.90;;;;;;4940102;28;20698;-68
2023/01/25 06:55:58;;;;;;;10.90;9.77;;;3.40;99.90;;;;;;4947264;28;20200;-69
2023/01/25 06:58:27;;;;;;;10.57;9.50;;;3.30;99.90;;;;;;4951335;28;20282;-69
2023/01/25 07:00:59;;;;;;;10.32;9.10;;;3.30;99.90;;;;;;4948262;28;20278;-68
2023/01/25 07:03:26;;;;;;;10.65;9.55;;;3.30;99.90;;;;;;4951348;28;20216;-69
2023/01/25 07:05:58;;;;;;;11.50;10.30;;;3.40;99.90;;;;;;4945794;28;20200;-69
2023/01/25 07:08:25;;;;;;;10.85;9.85;;;3.40;99.90;;;;;;4944244;28;20247;-69
2023/01/25 07:10:56;;;;;;;11.10;9.90;;;3.40;99.90;;;;;;4946144;28;20223;-69
2023/01/25 07:13:23;;;;;;;10.52;9.35;;;3.40;99.90;;;;;;4953128;28;20204;-69
2023/01/25 07:15:56;;;;;;;10.30;9.30;;;3.50;99.90;;;;;;4954113;28;20200;-68
2023/01/25 07:18:23;;;;;;;9.85;8.85;;;3.40;99.90;;;;;;4959985;28;20695;-69
2023/01/25 07:20:50;;;;;;;10.70;9.20;;;3.50;99.90;;;;;;4964575;28;20319;-68
2023/01/25 07:23:18;;;;;;;9.50;8.50;;;3.50;99.90;;;;;;4945106;28;20272;-69
2023/01/25 07:25:46;;;;;;;10.60;9.13;;;3.50;99.90;;;;;;4950440;28;20321;-69
2023/01/25 07:28:13;;;;;;;10.68;8.85;;;3.50;99.90;;;;;;4944392;28;20202;-70
2023/01/25 07:30:40;;;;;;;9.90;8.90;;;3.50;99.90;;;;;;4943984;29;20674;-70
2023/01/25 07:33:09;;;;;;;10.55;8.80;;;3.50;99.90;;;;;;4950075;28;20187;-70
2023/01/25 07:35:36;;;;;;;9.82;8.77;;;3.50;99.90;;;;;;4945897;28;20212;-69
2023/01/25 07:38:04;;;;;;;10.75;9.65;;;3.50;99.90;;;;;;4948270;29;20228;-70
2023/01/25 07:40:31;;;;;;;9.95;8.60;;;3.40;99.90;;;;;;4948587;29;20223;-70
2023/01/25 07:42:58;;;;;;;11.65;10.27;;;3.30;99.90;;;;;;4953843;28;20250;-70
2023/01/25 07:45:29;;;;;;;10.40;8.80;;;3.30;99.90;;;;;;4948079;29;20199;-70
2023/01/25 07:47:57;;;;;;;12.13;9.80;;;3.30;99.90;;;;;;4942183;29;20251;-70
2023/01/25 07:50:27;;;;;;;9.52;8.52;;;3.30;99.90;;;;;;4952626;29;20746;-69
2023/01/25 07:52:54;;;;;;;11.32;10.15;;;3.30;99.90;;;;;;4953456;29;20215;-69
2023/01/25 07:55:21;;;;;;;10.60;8.85;;;3.30;99.90;;;;;;4953681;29;20239;-69
2023/01/25 07:57:48;;;;;;;9.80;8.80;;;3.40;99.90;;;;;;4950133;29;20257;-70
2023/01/25 08:00:16;;;;;;;10.85;9.77;;;3.40;99.90;;;;;;4935309;29;20276;-70
2023/01/25 08:02:43;;;;;;;10.35;9.18;;;3.40;99.90;;;;;;4941509;29;20238;-69
2023/01/25 08:05:10;;;;;;;12.45;9.68;;;3.40;99.90;;;;;;4947647;29;20691;-69
2023/01/25 08:07:39;;;;;;;9.45;8.43;;;3.40;99.90;;;;;;4953389;29;20200;-70
2023/01/25 08:10:07;;;;;;;10.32;9.18;;;3.40;99.90;;;;;;4951751;29;20215;-70
2023/01/25 08:12:35;;;;;;;10.10;8.93;;;3.40;99.90;;;;;;4953664;29;20207;-70
2023/01/25 08:15:02;;;;;;;10.30;9.00;;;3.40;99.90;;;;;;4953158;28;20196;-69
2023/01/25 08:17:32;;;;;;;10.38;9.13;;;3.40;99.90;;;;;;4953187;29;20346;-68
2023/01/25 08:20:00;;;;;;;10.00;8.15;;;3.40;99.90;;;;;;4953623;28;20701;-69
2023/01/25 08:22:27;;;;;;;10.13;8.95;;;3.40;99.90;;;;;;4951345;29;20231;-68
2023/01/25 08:24:56;;;;;;;9.70;8.70;;;3.50;99.90;;;;;;4941150;29;20280;-69
2023/01/25 08:27:23;;;;;;;10.40;8.80;;;3.50;99.90;;;;;;4953285;28;20210;-68
2023/01/25 08:29:52;;;;;;;10.35;8.85;;;3.50;99.90;;;;;;4953982;29;20307;-68
2023/01/25 08:32:20;;;;;;;9.88;8.30;;;3.60;99.90;;;;;;4953397;29;20200;-68
2023/01/25 08:34:47;;;;;;;10.55;9.20;;;3.60;99.90;;;;;;4953076;29;20299;-68
2023/01/25 08:37:14;;;;;;;11.63;8.57;;;3.60;99.90;;;;;;4952618;29;20350;-68
2023/01/25 08:39:41;;;;;;;10.77;8.90;;;3.60;99.90;;;;;;4941016;28;20335;-68
2023/01/25 08:42:09;;;;;;;10.35;8.60;;;3.60;99.90;;;;;;4936014;29;20692;-69
2023/01/25 08:44:36;;;;;;;11.82;9.25;;;3.60;99.90;;;;;;4953228;29;20235;-69
2023/01/25 08:47:03;;;;;;;12.00;9.70;;;3.60;99.90;;;;;;4952360;29;20357;-68
2023/01/25 08:49:33;;;;;;;10.20;9.10;;;3.60;99.90;;;;;;4952190;29;20712;-68
2023/01/25 08:52:00;;;;;;;10.48;8.55;;;3.60;99.90;;;;;;4953381;29;20200;-69
2023/01/25 08:54:27;;;;;;;10.40;8.43;;;3.60;99.90;;;;;;4952054;28;20212;-69
2023/01/25 08:56:54;;;;;;;8.95;7.70;;;3.60;99.90;;;;;;4953503;29;20202;-69
2023/01/25 08:59:22;;;;;;;9.80;8.60;;;3.60;99.90;;;;;;4952520;29;20719;-70
2023/01/25 09:01:49;;;;;;;9.10;8.20;;;3.60;99.90;;;;;;4953479;28;20204;-70
2023/01/25 09:04:16;;;;;;;9.15;8.18;;;3.60;99.90;;;;;;4952104;29;20263;-70
2023/01/25 09:06:43;;;;;;;10.02;8.48;;;3.60;99.90;;;;;;4953278;28;20204;-70
2023/01/25 09:09:12;;;;;;;8.90;7.97;;;3.60;99.90;;;;;;4944241;29;20277;-69
2023/01/25 09:11:39;;;;;;;9.05;8.13;;;3.60;99.90;;;;;;4934263;29;20201;-69
2023/01/25 09:14:06;;;;;;;10.02;8.52;;;3.60;99.90;;;;;;4949303;29;20200;-69
2023/01/25 09:16:35;;;;;;;10.00;8.15;;;3.60;99.90;;;;;;4951890;29;20214;-69
2023/01/25 09:19:03;;;;;;;12.05;9.15;;;3.70;99.90;;;;;;4952090;28;20231;-68
2023/01/25 09:21:31;;;;;;;10.00;8.93;;;3.70;99.90;;;;;;4953376;29;20303;-69
2023/01/25 09:23:59;;;;;;;11.27;8.95;;;3.70;99.90;;;;;;4952532;29;20232;-69
2023/01/25 09:26:26;;;;;;;13.93;9.10;;;3.70;99.90;;;;;;4950767;29;20203;-70
2023/01/25 09:28:54;;;;;;;10.02;8.80;;;3.70;99.90;;;;;;4951552;29;20219;-69
2023/01/25 09:31:23;;;;;;;11.25;9.57;;;3.70;99.90;;;;;;4953438;29;20254;-69
2023/01/25 09:33:52;;;;;;;9.10;8.07;;;3.70;99.90;;;;;;4949567;29;21737;-70
2023/01/25 09:36:19;;;;;;;9.45;8.45;;;3.70;99.90;;;;;;4948930;29;20211;-70
2023/01/25 09:38:47;;;;;;;9.63;8.45;;;3.70;99.90;;;;;;4951972;28;20220;-69
2023/01/25 09:41:34;;;;;;;10.20;8.95;;;3.80;99.90;;;;;;4953445;29;20231;-70
2023/01/25 09:44:15;;;;;;;9.93;8.93;;;3.80;99.90;;;;;;4951905;29;20310;-69
2023/01/25 09:46:47;;;;;;;10.48;9.35;;;3.80;99.90;;;;;;4952348;29;20208;-69
2023/01/25 09:49:28;;;;;;;10.15;9.10;;;3.80;99.90;;;;;;4941930;29;20224;-69
2023/01/25 09:52:27;;;;;;;10.27;9.27;;;3.80;99.90;;;;;;4945905;29;20215;-69
2023/01/25 09:54:54;;;;;;;10.27;8.63;;;3.70;99.90;;;;;;4933767;29;20549;-69
2023/01/25 09:57:26;;;;;;;12.30;9.82;;;3.70;99.90;;;;;;4934096;29;20243;-69
2023/01/25 09:59:54;;;;;;;10.77;9.50;;;3.70;99.90;;;;;;4952258;29;20232;-69
2023/01/25 10:02:38;;;;;;;11.05;9.90;;;3.70;99.90;;;;;;4951253;29;20203;-69
2023/01/25 10:05:12;;;;;;;10.48;9.13;;;3.70;99.90;;;;;;4933840;29;20195;-70
2023/01/25 10:07:49;;;;;;;12.65;9.27;;;3.80;99.90;;;;;;4935194;29;20266;-70
2023/01/25 10:10:19;;;;;;;11.82;10.48;;;3.70;99.90;;;;;;4951567;28;20660;-70
2023/01/25 10:12:47;;;;;;;10.98;9.88;;;3.60;99.90;;;;;;4951889;29;20197;-70
2023/01/25 10:15:18;;;;;;;11.52;10.32;;;3.60;99.90;;;;;;4952547;29;20197;-70
2023/01/25 10:17:57;;;;;;;10.98;9.25;;;3.60;99.90;;;;;;4946478;28;20208;-70
2023/01/25 10:20:34;;;;;;;12.18;9.30;;;3.60;99.90;;;;;;4951656;29;20211;-70
2023/01/25 10:23:24;;;;;;;11.98;10.43;;;3.60;99.90;;;;;;4951452;29;20383;-69
2023/01/25 10:25:57;;;;;;;11.00;9.55;;;3.60;99.90;;;;;;4952778;29;20258;-69
2023/01/25 10:28:37;;;;;;;11.38;10.18;;;3.70;99.90;;;;;;4951432;29;20306;-69
2023/01/25 10:31:06;;;;;;;12.43;10.98;;;3.70;99.90;;;;;;4944922;29;20203;-69
2023/01/25 10:33:40;;;;;;;11.15;9.93;;;3.60;99.90;;;;;;4945597;29;20219;-69
2023/01/25 10:36:14;;;;;;;12.60;9.77;;;3.50;99.90;;;;;;4952283;29;20208;-69
2023/01/25 10:38:44;;;;;;;11.18;9.95;;;3.40;99.90;;;;;;4951383;28;20599;-69
2023/01/25 10:41:16;;;;;;;11.65;9.70;;;3.40;99.90;;;;;;4952582;29;20200;-69
2023/01/25 10:43:44;;;;;;;12.38;10.98;;;3.50;99.90;;;;;;4951386;29;20228;-69
2023/01/25 10:46:23;;;;;;;12.77;10.07;;;3.50;99.90;;;;;;4934479;29;20622;-70
2023/01/25 10:48:50;;;;;;;11.73;10.20;;;3.60;99.90;;;;;;4949946;28;20315;-68
2023/01/25 10:51:34;;;;;;;11.77;10.57;;;3.60;99.90;;;;;;4951244;29;20211;-69
2023/01/25 10:54:05;;;;;;;15.55;12.95;;;3.70;99.90;;;;;;4952580;29;20286;-69
2023/01/25 10:56:35;;;;;;;15.15;13.52;;;3.70;99.90;;;;;;4950967;29;20714;-69
2023/01/25 10:59:16;;;;;;;12.48;10.57;;;3.70;99.90;;;;;;4951748;28;20578;-69
2023/01/25 11:01:43;;;;;;;12.25;10.93;;;3.80;99.90;;;;;;4943253;28;20653;-69
2023/01/25 11:04:30;;;;;;;12.82;10.52;;;3.70;99.90;;;;;;4955163;29;20228;-70
2023/01/25 11:06:59;;;;;;;14.23;10.70;;;3.80;99.90;;;;;;4954440;29;20255;-69
2023/01/25 11:09:35;;;;;;;12.18;9.85;;;3.80;99.90;;;;;;4954287;28;20307;-69
2023/01/25 11:12:04;;;;;;;12.73;11.23;;;3.90;99.90;;;;;;4954743;29;20662;-70
2023/01/25 11:14:32;;;;;;;11.95;9.75;;;3.90;99.90;;;;;;4954859;28;20660;-70
2023/01/25 11:17:01;;;;;;;13.30;10.05;;;4.00;99.90;;;;;;4953856;29;20227;-70
2023/01/25 11:19:33;;;;;;;10.60;9.48;;;4.10;99.90;;;;;;4954833;29;20776;-70
2023/01/25 11:22:03;;;;;;;13.35;11.02;;;4.10;99.90;;;;;;4954399;29;20231;-72
2023/01/25 11:24:32;;;;;;;11.73;10.05;;;4.10;99.90;;;;;;4955524;29;20230;-70
2023/01/25 11:27:13;;;;;;;12.20;10.93;;;4.10;99.90;;;;;;4951113;29;20205;-70
2023/01/25 11:29:41;;;;;;;13.45;11.73;;;4.10;99.90;;;;;;4953170;29;20311;-71
2023/01/25 11:32:19;;;;;;;11.23;10.00;;;4.00;99.90;;;;;;4954170;29;20200;-70
2023/01/25 11:34:46;;;;;;;11.05;9.52;;;4.00;99.90;;;;;;4952138;29;20196;-70
2023/01/25 11:37:29;;;;;;;10.88;9.68;;;4.00;99.90;;;;;;4953858;28;20200;-70
2023/01/25 11:40:11;;;;;;;11.30;9.90;;;4.00;99.90;;;;;;4953771;29;20716;-71
2023/01/25 11:42:46;;;;;;;11.70;10.07;;;3.90;99.90;;;;;;4950221;29;20205;-73
2023/01/25 11:45:40;;;;;;;10.95;9.85;;;3.90;99.90;;;;;;4954330;29;20274;-71
2023/01/25 11:48:24;;;;;;;12.20;10.50;;;3.90;99.90;;;;;;4953738;29;20303;-72
2023/01/25 11:51:00;;;;;;;12.75;10.85;;;3.80;99.90;;;;;;4955029;29;20576;-72
2023/01/25 11:53:44;;;;;;;12.30;10.35;;;3.80;99.90;;;;;;4952500;28;20653;-71
2023/01/25 11:56:17;;;;;;;12.15;10.30;;;3.80;99.90;;;;;;4952482;29;20189;-71
2023/01/25 11:59:17;;;;;;;14.77;11.18;;;3.70;99.90;;;;;;4954259;29;20224;-73
2023/01/25 12:02:01;;;;;;;12.60;10.15;;;3.70;99.90;;;;;;4952802;28;20572;-71
2023/01/25 12:04:56;;;;;;;12.10;10.27;;;3.70;99.90;;;;;;4946885;29;20235;-72
2023/01/25 12:07:36;;;;;;;11.30;10.10;;;3.70;99.90;;;;;;4935069;29;20688;-72
2023/01/25 12:10:17;;;;;;;11.27;10.05;;;3.70;99.90;;;;;;4952038;29;20592;-74
2023/01/25 12:12:52;;;;;;;12.60;10.35;;;3.80;99.90;;;;;;4939122;28;20713;-73
2023/01/25 12:15:32;;;;;;;11.55;9.95;;;3.80;99.90;;;;;;4952641;29;20232;-72
2023/01/25 12:18:20;;;;;;;14.48;10.30;;;3.80;99.90;;;;;;4942594;29;20248;-74
2023/01/25 12:21:03;;;;;;;9.38;8.35;;;3.80;99.90;;;;;;4932810;29;20204;-72
2023/01/25 12:23:41;;;;;;;12.27;10.52;;;3.80;99.90;;;;;;4939064;29;20198;-73
2023/01/25 12:26:20;;;;;;;11.10;9.90;;;3.80;99.90;;;;;;4954643;28;20195;-89
2023/01/25 12:28:53;;;;;;;11.30;9.52;;;3.80;99.90;;;;;;4951628;29;20525;-72
2023/01/25 12:31:24;;;;;;;14.25;11.40;;;3.90;99.90;;;;;;4943945;29;20272;-72
2023/01/25 12:33:56;;;;;;;12.88;11.52;;;3.90;99.90;;;;;;4945660;29;20227;-74
2023/01/25 12:36:27;;;;;;;15.23;12.15;;;3.90;99.90;;;;;;4953725;28;20204;-72
2023/01/25 12:38:58;;;;;;;13.13;10.68;;;3.90;99.90;;;;;;4953010;29;20617;-72
2023/01/25 12:41:33;;;;;;;13.93;11.07;;;3.90;99.90;;;;;;4954036;28;20224;-75
2023/01/25 12:44:08;;;;;;;12.88;11.10;;;3.80;99.90;;;;;;4949303;29;20902;-74
2023/01/25 12:46:42;;;;;;;14.75;11.43;;;3.70;99.90;;;;;;4942053;29;20215;-72
2023/01/25 12:49:19;;;;;;;13.80;11.30;;;3.70;99.90;;;;;;4952536;29;20314;-70
2023/01/25 12:51:47;;;;;;;12.10;10.18;;;3.70;99.90;;;;;;4953684;29;20641;-71
2023/01/25 12:54:22;;;;;;;13.77;11.20;;;3.70;99.90;;;;;;4952439;29;20769;-71
2023/01/25 12:56:58;;;;;;;14.60;10.70;;;3.70;99.90;;;;;;4954314;29;20242;-71